createdAt,value
2023-01-26T00:02:05.932Z,54.10
2023-01-26T00:04:33.620Z,51.50
2023-01-26T00:07:01.653Z,57.50
2023-01-26T00:09:29.430Z,53.80
2023-01-26T00:11:57.233Z,56.83
2023-01-26T00:14:25.098Z,53.60
2023-01-26T00:16:55.215Z,51.80
2023-01-26T00:19:24.495Z,53.37
2023-01-26T00:21:52.764Z,55.40
2023-01-26T00:24:20.650Z,54.00
2023-01-26T00:26:48.736Z,48.37
2023-01-26T00:29:16.593Z,51.07
2023-01-26T00:31:45.193Z,53.67
2023-01-26T00:34:13.114Z,51.57
2023-01-26T00:36:42.782Z,50.60
2023-01-26T00:39:10.637Z,53.40
2023-01-26T00:41:55.879Z,52.10
2023-01-26T00:44:23.773Z,55.43
2023-01-26T00:46:51.810Z,51.53
2023-01-26T00:49:19.504Z,48.93
2023-01-26T00:51:48.929Z,48.33
2023-01-26T00:54:16.646Z,50.00
2023-01-26T00:56:44.810Z,49.37
2023-01-26T00:59:13.125Z,53.63
2023-01-26T01:01:41.382Z,50.67
2023-01-26T01:04:09.204Z,50.57
2023-01-26T01:06:37.752Z,51.53
2023-01-26T01:09:06.999Z,50.30
2023-01-26T01:11:36.061Z,45.27
2023-01-26T01:14:04.033Z,45.07
2023-01-26T01:16:31.974Z,52.00
2023-01-26T01:19:00.060Z,52.63
2023-01-26T01:21:28.035Z,51.77
2023-01-26T01:23:56.451Z,48.67
2023-01-26T01:26:25.867Z,51.63
2023-01-26T01:28:55.331Z,46.53
2023-01-26T01:31:23.403Z,47.37
2023-01-26T01:33:51.778Z,50.50
2023-01-26T01:36:19.568Z,51.77
2023-01-26T01:38:48.059Z,51.60
2023-01-26T01:41:16.195Z,49.30
2023-01-26T01:43:45.344Z,48.00
2023-01-26T01:46:16.305Z,51.83
2023-01-26T01:48:49.009Z,49.40
2023-01-26T01:51:19.516Z,47.10
2023-01-26T01:53:48.843Z,49.23
2023-01-26T01:56:21.428Z,51.40
2023-01-26T01:58:52.760Z,50.70
2023-01-26T02:01:20.652Z,49.23
2023-01-26T02:03:48.762Z,48.73
2023-01-26T02:06:18.159Z,55.33
2023-01-26T02:08:47.352Z,49.70
2023-01-26T02:11:16.100Z,52.90
2023-01-26T02:13:44.215Z,51.73
2023-01-26T02:16:14.030Z,46.30
2023-01-26T02:18:41.996Z,46.47
2023-01-26T02:21:11.852Z,47.30
2023-01-26T02:23:51.259Z,43.33
2023-01-26T02:26:21.732Z,49.43
2023-01-26T02:28:49.616Z,47.60
2023-01-26T02:31:18.198Z,47.00
2023-01-26T02:33:46.179Z,46.27
2023-01-26T02:36:19.688Z,47.43
2023-01-26T02:38:50.577Z,41.30
2023-01-26T02:41:40.656Z,48.40
2023-01-26T02:44:08.700Z,43.63
2023-01-26T02:46:36.739Z,48.07
2023-01-26T02:49:22.470Z,44.90
2023-01-26T02:51:50.939Z,42.10
2023-01-26T02:54:32.670Z,41.87
2023-01-26T02:57:01.980Z,42.03
2023-01-26T02:59:29.923Z,42.77
2023-01-26T03:01:58.398Z,39.47
2023-01-26T03:04:26.135Z,39.10
2023-01-26T03:06:53.889Z,37.50
2023-01-26T03:09:22.166Z,41.47
2023-01-26T03:11:50.070Z,40.47
2023-01-26T03:14:19.636Z,38.87
2023-01-26T03:16:47.500Z,42.50
2023-01-26T03:19:33.829Z,36.10
2023-01-26T03:22:19.287Z,41.97
2023-01-26T03:25:05.133Z,39.90
2023-01-26T03:27:35.520Z,37.27
2023-01-26T03:30:05.321Z,38.93
2023-01-26T03:32:33.056Z,42.63
2023-01-26T03:35:00.756Z,38.47
2023-01-26T03:37:34.420Z,41.27
2023-01-26T03:40:19.687Z,41.70
2023-01-26T03:43:04.950Z,39.13
2023-01-26T03:45:52.465Z,40.27
2023-01-26T03:48:37.750Z,37.47
2023-01-26T03:51:24.121Z,39.03
2023-01-26T03:54:09.656Z,39.83
2023-01-26T03:56:37.781Z,40.63
2023-01-26T03:59:09.013Z,35.60
2023-01-26T04:01:39.456Z,38.70
2023-01-26T04:04:25.095Z,40.83
2023-01-26T04:07:11.114Z,32.37
2023-01-26T04:09:39.582Z,37.87
2023-01-26T04:12:10.207Z,35.70
2023-01-26T04:14:55.806Z,33.53
2023-01-26T04:17:42.551Z,32.67
2023-01-26T04:20:28.949Z,29.60
2023-01-26T04:22:57.093Z,33.00
2023-01-26T04:25:25.088Z,30.97
2023-01-26T04:27:53.387Z,28.73
2023-01-26T04:30:21.502Z,37.93
2023-01-26T04:32:51.693Z,29.13
2023-01-26T04:35:19.384Z,27.67
2023-01-26T04:37:47.347Z,30.10
2023-01-26T04:40:15.685Z,28.73
2023-01-26T04:42:43.556Z,31.33
2023-01-26T04:45:12.535Z,31.47
2023-01-26T04:47:40.412Z,27.50
2023-01-26T04:50:12.239Z,26.47
2023-01-26T04:52:40.059Z,30.00
2023-01-26T04:55:08.601Z,25.87
2023-01-26T04:57:36.485Z,26.77
2023-01-26T05:00:04.796Z,25.83
2023-01-26T05:02:32.714Z,25.70
2023-01-26T05:05:01.057Z,24.53
2023-01-26T05:07:30.416Z,25.80
2023-01-26T05:09:58.833Z,23.67
2023-01-26T05:12:35.672Z,27.33
2023-01-26T05:15:04.000Z,23.40
2023-01-26T05:17:31.871Z,26.67
2023-01-26T05:20:00.349Z,25.47
2023-01-26T05:22:28.204Z,22.27
2023-01-26T05:24:57.448Z,25.23
2023-01-26T05:27:25.561Z,21.97
2023-01-26T05:29:53.455Z,23.13
2023-01-26T05:32:22.519Z,22.20
2023-01-26T05:34:50.213Z,27.43
2023-01-26T05:37:18.484Z,24.77
2023-01-26T05:39:46.186Z,25.57
2023-01-26T05:42:15.841Z,23.67
2023-01-26T05:44:43.723Z,26.20
2023-01-26T05:47:11.960Z,23.50
2023-01-26T05:49:42.877Z,19.20
2023-01-26T05:52:11.574Z,22.87
2023-01-26T05:54:39.668Z,21.23
2023-01-26T05:57:07.917Z,21.97
2023-01-26T05:59:37.232Z,25.30
2023-01-26T06:02:05.158Z,19.80
2023-01-26T06:04:33.573Z,21.23
2023-01-26T06:07:01.536Z,17.13
2023-01-26T06:09:29.811Z,20.97
2023-01-26T06:11:58.097Z,23.77
2023-01-26T06:14:26.305Z,21.53
2023-01-26T06:16:56.770Z,21.57
2023-01-26T06:19:25.285Z,19.97
2023-01-26T06:21:53.760Z,21.23
2023-01-26T06:24:22.564Z,20.43
2023-01-26T06:26:50.295Z,20.10
2023-01-26T06:29:18.641Z,25.33
2023-01-26T06:31:46.639Z,22.90
2023-01-26T06:34:15.984Z,22.73
2023-01-26T06:36:43.741Z,27.00
2023-01-26T06:39:12.671Z,25.00
2023-01-26T06:41:40.742Z,23.20
2023-01-26T06:44:09.765Z,23.67
2023-01-26T06:46:37.783Z,25.73
2023-01-26T06:49:05.721Z,22.60
2023-01-26T06:51:46.842Z,23.20
2023-01-26T06:54:15.486Z,27.37
2023-01-26T06:56:43.371Z,13.53
2023-01-26T06:59:12.010Z,14.80
2023-01-26T07:01:42.464Z,16.27
2023-01-26T07:04:10.384Z,14.53
2023-01-26T07:06:38.640Z,14.83
2023-01-26T07:09:07.973Z,13.20
2023-01-26T07:11:36.260Z,13.53
2023-01-26T07:14:04.209Z,21.47
2023-01-26T07:16:33.884Z,12.13
2023-01-26T07:19:02.090Z,13.30
2023-01-26T07:21:30.690Z,12.40
2023-01-26T07:23:58.731Z,13.57
2023-01-26T07:26:28.144Z,15.23
2023-01-26T07:28:56.331Z,13.37
2023-01-26T07:31:24.597Z,13.90
2023-01-26T07:33:52.743Z,14.00
2023-01-26T07:36:20.851Z,15.00
2023-01-26T07:38:48.567Z,15.83
2023-01-26T07:41:16.245Z,11.63
2023-01-26T07:43:45.711Z,10.97
2023-01-26T07:46:13.485Z,13.37
2023-01-26T07:48:42.162Z,10.93
2023-01-26T07:51:11.021Z,13.90
2023-01-26T07:53:39.852Z,12.20
2023-01-26T07:56:11.163Z,10.03
2023-01-26T07:58:39.283Z,9.97
2023-01-26T08:01:10.419Z,10.30
2023-01-26T08:03:38.490Z,8.93
2023-01-26T08:06:07.016Z,8.80
2023-01-26T08:08:35.567Z,10.13
2023-01-26T08:11:03.451Z,14.30
2023-01-26T08:13:35.677Z,9.60
2023-01-26T08:16:04.917Z,10.63
2023-01-26T08:18:33.977Z,13.40
2023-01-26T08:21:01.685Z,11.70
2023-01-26T08:23:29.516Z,11.87
2023-01-26T08:26:01.280Z,12.03
2023-01-26T08:28:29.160Z,11.10
2023-01-26T08:30:57.404Z,9.83
2023-01-26T08:33:25.203Z,11.50
2023-01-26T08:35:54.962Z,10.00
2023-01-26T08:38:22.650Z,11.60
2023-01-26T08:40:53.295Z,8.80
2023-01-26T08:43:21.206Z,10.90
2023-01-26T08:45:49.123Z,9.43
2023-01-26T08:48:17.453Z,9.87
2023-01-26T08:50:45.372Z,10.10
2023-01-26T08:53:14.806Z,9.57
2023-01-26T08:55:43.096Z,12.60
2023-01-26T08:58:11.225Z,8.80
2023-01-26T09:00:38.906Z,8.80
2023-01-26T09:03:07.373Z,10.37
2023-01-26T09:05:35.976Z,10.00
2023-01-26T09:08:04.055Z,8.20
2023-01-26T09:10:33.113Z,11.80
2023-01-26T09:13:01.458Z,12.40
2023-01-26T09:15:29.274Z,7.60
2023-01-26T09:17:58.614Z,8.50
2023-01-26T09:20:28.468Z,14.13
2023-01-26T09:22:56.839Z,8.63
2023-01-26T09:25:24.767Z,7.80
2023-01-26T09:27:54.026Z,8.60
2023-01-26T09:30:22.590Z,7.70
2023-01-26T09:32:50.550Z,10.63
2023-01-26T09:35:19.465Z,8.80
2023-01-26T09:37:47.375Z,7.83
2023-01-26T09:40:17.249Z,8.47
2023-01-26T09:43:01.726Z,9.90
2023-01-26T09:45:33.251Z,9.80
2023-01-26T09:48:09.673Z,7.20
2023-01-26T09:50:39.555Z,7.33
2023-01-26T09:53:08.626Z,7.67
2023-01-26T09:55:36.848Z,7.20
2023-01-26T09:58:05.780Z,7.00
2023-01-26T10:00:37.042Z,7.20
2023-01-26T10:03:14.119Z,8.73
2023-01-26T10:05:43.525Z,7.27
2023-01-26T10:08:13.055Z,8.87
2023-01-26T10:10:42.669Z,7.13
2023-01-26T10:13:11.274Z,6.87
2023-01-26T10:15:43.062Z,7.03
2023-01-26T10:18:13.550Z,6.87
2023-01-26T10:20:43.686Z,6.73
2023-01-26T10:23:13.913Z,6.90
2023-01-26T10:25:42.360Z,7.40
2023-01-26T10:28:14.332Z,8.20
2023-01-26T10:30:44.334Z,9.13
2023-01-26T10:33:16.520Z,9.27
2023-01-26T10:35:44.469Z,7.70
2023-01-26T10:38:29.121Z,9.73
2023-01-26T10:40:57.039Z,13.20
2023-01-26T10:43:24.795Z,17.80
2023-01-26T10:45:54.503Z,8.57
2023-01-26T10:48:24.163Z,8.73
2023-01-26T10:50:52.133Z,10.17
2023-01-26T10:53:23.647Z,14.77
2023-01-26T10:56:00.898Z,9.50
2023-01-26T10:58:53.738Z,9.33
2023-01-26T11:01:27.307Z,7.63
2023-01-26T11:04:02.345Z,8.70
2023-01-26T11:06:31.016Z,9.43
2023-01-26T11:09:10.289Z,9.43
2023-01-26T11:11:38.870Z,7.93
2023-01-26T11:14:13.881Z,7.60
2023-01-26T11:16:45.694Z,6.77
2023-01-26T11:19:14.457Z,17.67
2023-01-26T11:21:44.192Z,11.57
2023-01-26T11:24:13.634Z,6.07
2023-01-26T11:27:17.910Z,6.80
2023-01-26T11:29:51.937Z,7.73
2023-01-26T11:32:24.242Z,7.53
2023-01-26T11:34:58.220Z,9.47
2023-01-26T11:37:40.468Z,10.70
2023-01-26T11:40:29.082Z,13.53
2023-01-26T11:43:08.944Z,10.50
2023-01-26T11:45:39.530Z,6.53
2023-01-26T11:48:15.216Z,6.07
2023-01-26T11:50:46.090Z,7.83
2023-01-26T11:53:23.594Z,6.93
2023-01-26T11:56:01.259Z,7.50
2023-01-26T11:58:33.070Z,10.80
2023-01-26T12:01:01.824Z,13.73
2023-01-26T12:03:34.821Z,7.00
2023-01-26T12:06:03.773Z,5.20
2023-01-26T12:08:38.723Z,9.97
2023-01-26T12:11:21.426Z,7.50
2023-01-26T12:13:51.772Z,7.23
2023-01-26T12:16:21.843Z,5.33
2023-01-26T12:19:10.134Z,6.03
2023-01-26T12:21:39.331Z,9.60
2023-01-26T12:24:12.856Z,11.13
2023-01-26T12:26:48.549Z,6.50
2023-01-26T12:29:18.682Z,7.57
2023-01-26T12:31:49.155Z,7.83
2023-01-26T12:34:18.283Z,9.27
2023-01-26T12:36:49.531Z,5.67
2023-01-26T12:39:19.151Z,6.13
2023-01-26T12:42:01.093Z,7.33
2023-01-26T12:44:34.931Z,6.20
2023-01-26T12:47:06.721Z,9.23
2023-01-26T12:49:38.300Z,6.63
2023-01-26T12:52:08.011Z,7.00
2023-01-26T12:54:38.197Z,6.83
2023-01-26T12:57:07.443Z,7.60
2023-01-26T12:59:47.708Z,10.37
2023-01-26T13:02:27.929Z,7.27
2023-01-26T13:04:57.986Z,7.20
2023-01-26T13:07:34.344Z,5.73
2023-01-26T13:10:25.264Z,10.23
2023-01-26T13:12:55.025Z,7.43
2023-01-26T13:15:23.559Z,8.17
2023-01-26T13:17:53.572Z,4.20
2023-01-26T13:20:27.730Z,5.13
2023-01-26T13:22:55.681Z,6.50
2023-01-26T13:25:31.210Z,11.30
2023-01-26T13:28:00.247Z,5.60
2023-01-26T13:30:46.290Z,5.83
2023-01-26T13:33:17.091Z,6.43
2023-01-26T13:35:47.138Z,5.10
2023-01-26T13:38:21.705Z,3.90
2023-01-26T13:40:50.774Z,7.27
2023-01-26T13:43:27.047Z,4.77
2023-01-26T13:46:11.123Z,6.03
2023-01-26T13:48:47.243Z,4.33
2023-01-26T13:51:18.622Z,6.80
2023-01-26T13:53:50.582Z,7.03
2023-01-26T13:56:27.016Z,6.20
2023-01-26T13:58:55.291Z,6.17
2023-01-26T14:01:23.166Z,5.50
2023-01-26T14:04:04.762Z,4.13
2023-01-26T14:06:34.030Z,5.63
2023-01-26T14:09:01.851Z,6.60
2023-01-26T14:11:30.225Z,4.60
2023-01-26T14:13:58.498Z,6.13
2023-01-26T14:16:29.050Z,5.83
2023-01-26T14:19:05.638Z,7.23
2023-01-26T14:21:46.132Z,6.03
2023-01-26T14:24:13.908Z,6.10
2023-01-26T14:26:42.047Z,6.00
2023-01-26T14:29:12.610Z,8.53
2023-01-26T14:31:40.362Z,5.40
2023-01-26T14:34:10.343Z,6.80
2023-01-26T14:36:40.055Z,8.80
2023-01-26T14:39:15.962Z,8.47
2023-01-26T14:41:44.154Z,11.00
2023-01-26T14:44:11.889Z,6.40
2023-01-26T14:46:43.154Z,8.77
2023-01-26T14:49:12.596Z,6.30
2023-01-26T14:51:42.467Z,5.70
2023-01-26T14:54:15.896Z,7.37
2023-01-26T14:56:43.738Z,6.07
2023-01-26T14:59:19.410Z,6.43
2023-01-26T15:01:47.630Z,8.30
2023-01-26T15:04:21.395Z,9.33
2023-01-26T15:06:50.723Z,8.40
2023-01-26T15:09:22.168Z,4.90
2023-01-26T15:12:11.369Z,6.63
2023-01-26T15:14:39.982Z,4.43
2023-01-26T15:17:08.247Z,8.00
2023-01-26T15:19:42.468Z,12.40
2023-01-26T15:22:20.510Z,9.00
2023-01-26T15:24:48.660Z,5.50
2023-01-26T15:27:16.617Z,11.80
2023-01-26T15:29:44.555Z,7.90
2023-01-26T15:32:28.470Z,4.77
2023-01-26T15:35:05.362Z,7.43
2023-01-26T15:37:36.117Z,5.87
2023-01-26T15:40:04.535Z,5.90
2023-01-26T15:42:33.379Z,6.40
2023-01-26T15:45:01.202Z,7.87
2023-01-26T15:47:28.909Z,7.67
2023-01-26T15:49:57.167Z,5.83
2023-01-26T15:52:26.076Z,10.13
2023-01-26T15:54:55.352Z,8.10
2023-01-26T15:57:23.285Z,6.33
2023-01-26T15:59:51.712Z,5.03
2023-01-26T16:02:20.188Z,4.90
2023-01-26T16:04:48.217Z,6.63
2023-01-26T16:07:17.547Z,8.60
2023-01-26T16:09:45.532Z,7.13
2023-01-26T16:12:30.415Z,5.67
2023-01-26T16:14:58.987Z,6.50
2023-01-26T16:17:26.894Z,6.17
2023-01-26T16:19:54.823Z,4.10
2023-01-26T16:22:22.847Z,8.90
2023-01-26T16:24:50.647Z,5.60
2023-01-26T16:27:21.872Z,10.47
2023-01-26T16:29:49.821Z,6.33
2023-01-26T16:32:23.880Z,9.20
2023-01-26T16:34:51.725Z,6.20
2023-01-26T16:37:19.682Z,10.00
2023-01-26T16:39:47.630Z,7.90
2023-01-26T16:42:19.795Z,9.37
2023-01-26T16:44:48.275Z,6.23
2023-01-26T16:47:16.195Z,5.10
2023-01-26T16:49:44.450Z,5.83
2023-01-26T16:52:12.297Z,8.60
2023-01-26T16:54:40.261Z,5.77
2023-01-26T16:57:08.059Z,8.20
2023-01-26T16:59:37.552Z,9.27
2023-01-26T17:02:05.424Z,4.90
2023-01-26T17:04:33.569Z,6.90
2023-01-26T17:07:01.540Z,6.90
2023-01-26T17:09:29.557Z,8.27
2023-01-26T17:11:57.483Z,8.70
2023-01-26T17:14:25.426Z,5.83
2023-01-26T17:16:55.311Z,5.50
2023-01-26T17:19:23.083Z,8.40
2023-01-26T17:21:51.222Z,5.87
2023-01-26T17:24:19.169Z,7.60
2023-01-26T17:26:47.341Z,5.30
2023-01-26T17:29:15.319Z,11.53
2023-01-26T17:31:43.675Z,4.93
2023-01-26T17:34:13.111Z,7.90
2023-01-26T17:36:40.950Z,6.23
2023-01-26T17:39:12.171Z,6.53
2023-01-26T17:41:39.873Z,6.90
2023-01-26T17:44:07.570Z,7.97
2023-01-26T17:46:35.510Z,5.73
2023-01-26T17:49:03.512Z,5.63
2023-01-26T17:51:32.797Z,5.73
2023-01-26T17:54:00.499Z,7.30
2023-01-26T17:56:28.347Z,3.23
2023-01-26T17:58:56.270Z,4.80
2023-01-26T18:01:27.571Z,5.43
2023-01-26T18:03:56.083Z,5.40
2023-01-26T18:06:24.079Z,5.70
2023-01-26T18:08:54.275Z,4.00
2023-01-26T18:11:22.261Z,7.03
2023-01-26T18:13:52.100Z,5.67
2023-01-26T18:16:20.977Z,5.93
2023-01-26T18:18:49.282Z,3.57
2023-01-26T18:21:17.997Z,6.70
2023-01-26T18:23:46.962Z,5.37
2023-01-26T18:26:16.264Z,5.97
2023-01-26T18:28:44.344Z,5.13
2023-01-26T18:31:12.996Z,7.90
2023-01-26T18:33:41.039Z,5.83
2023-01-26T18:36:11.880Z,5.67
2023-01-26T18:38:40.161Z,7.50
2023-01-26T18:41:11.256Z,7.67
2023-01-26T18:43:41.749Z,6.07
2023-01-26T18:46:09.961Z,5.57
2023-01-26T18:48:37.707Z,12.83
2023-01-26T18:51:06.124Z,5.63
2023-01-26T18:53:34.152Z,4.37
2023-01-26T18:56:02.549Z,3.43
2023-01-26T18:58:32.112Z,4.90
2023-01-26T19:01:04.134Z,5.27
2023-01-26T19:03:31.895Z,8.40
2023-01-26T19:06:02.290Z,5.10
2023-01-26T19:08:30.749Z,15.40
2023-01-26T19:10:58.967Z,15.90
2023-01-26T19:13:26.947Z,16.93
2023-01-26T19:15:54.865Z,19.80
2023-01-26T19:18:24.319Z,18.83
2023-01-26T19:20:56.672Z,17.73
2023-01-26T19:23:24.599Z,20.80
2023-01-26T19:25:52.521Z,20.83
2023-01-26T19:28:20.806Z,26.47
2023-01-26T19:30:48.818Z,19.57
2023-01-26T19:33:25.539Z,13.70
2023-01-26T19:35:54.945Z,13.30
2023-01-26T19:38:22.908Z,18.80
2023-01-26T19:40:51.700Z,18.57
2023-01-26T19:43:20.125Z,13.83
2023-01-26T19:45:49.311Z,15.53
2023-01-26T19:48:17.298Z,22.00
2023-01-26T19:50:45.065Z,12.37
2023-01-26T19:53:14.160Z,12.60
2023-01-26T19:55:41.931Z,12.40
2023-01-26T19:58:10.395Z,10.87
2023-01-26T20:00:38.804Z,15.03
2023-01-26T20:03:06.630Z,11.57
2023-01-26T20:05:36.999Z,18.00
2023-01-26T20:08:04.825Z,14.77
2023-01-26T20:10:33.833Z,13.90
2023-01-26T20:13:01.932Z,8.97
2023-01-26T20:15:29.805Z,15.13
2023-01-26T20:17:57.810Z,13.33
2023-01-26T20:20:25.776Z,12.73
2023-01-26T20:22:53.737Z,8.43
2023-01-26T20:25:21.706Z,11.50
2023-01-26T20:27:51.081Z,9.47
2023-01-26T20:30:19.389Z,8.70
2023-01-26T20:32:47.290Z,10.80
2023-01-26T20:35:15.399Z,8.23
2023-01-26T20:37:43.688Z,8.80
2023-01-26T20:40:13.110Z,9.80
2023-01-26T20:42:41.156Z,5.47
2023-01-26T20:45:11.222Z,8.57
2023-01-26T20:47:40.451Z,11.50
2023-01-26T20:50:08.843Z,8.90
2023-01-26T20:52:36.761Z,9.20
2023-01-26T20:55:06.811Z,8.50
2023-01-26T20:57:34.627Z,7.60
2023-01-26T21:00:02.484Z,6.77
2023-01-26T21:02:31.589Z,9.03
2023-01-26T21:04:59.429Z,8.70
2023-01-26T21:07:28.172Z,10.33
2023-01-26T21:09:55.930Z,10.00
2023-01-26T21:12:23.726Z,8.20
2023-01-26T21:14:51.693Z,5.93
2023-01-26T21:17:22.509Z,9.87
2023-01-26T21:19:51.886Z,5.60
2023-01-26T21:22:20.965Z,5.00
2023-01-26T21:24:48.747Z,6.90
2023-01-26T21:27:18.123Z,8.93
2023-01-26T21:29:45.912Z,4.80
2023-01-26T21:32:13.679Z,6.90
2023-01-26T21:34:41.483Z,10.73
2023-01-26T21:37:10.608Z,7.93
2023-01-26T21:39:38.389Z,10.43
2023-01-26T21:42:06.471Z,9.30
2023-01-26T21:44:54.463Z,6.00
2023-01-26T21:47:22.401Z,9.13
2023-01-26T21:49:51.793Z,7.80
2023-01-26T21:52:38.681Z,11.03
2023-01-26T21:55:07.213Z,8.17
2023-01-26T21:57:52.722Z,6.40
2023-01-26T22:00:22.019Z,11.43
2023-01-26T22:02:49.714Z,6.13
2023-01-26T22:05:17.610Z,6.67
2023-01-26T22:07:47.091Z,9.93
2023-01-26T22:10:15.417Z,6.13
2023-01-26T22:12:43.273Z,9.27
2023-01-26T22:15:11.799Z,10.90
2023-01-26T22:17:39.722Z,13.37
2023-01-26T22:20:09.568Z,8.87
2023-01-26T22:22:37.861Z,7.90
2023-01-26T22:25:07.987Z,9.90
2023-01-26T22:27:40.098Z,6.03
2023-01-26T22:30:09.447Z,11.93
2023-01-26T22:32:39.805Z,7.30
2023-01-26T22:35:31.123Z,5.10
2023-01-26T22:38:08.695Z,9.50
2023-01-26T22:40:52.140Z,5.63
2023-01-26T22:43:21.233Z,8.37
2023-01-26T22:45:49.637Z,4.53
2023-01-26T22:48:17.869Z,4.40
2023-01-26T22:50:58.557Z,5.40
2023-01-26T22:53:29.588Z,6.73
2023-01-26T22:55:59.235Z,3.10
2023-01-26T22:58:27.456Z,10.73
2023-01-26T23:00:55.481Z,18.03
2023-01-26T23:03:23.607Z,7.87
2023-01-26T23:05:51.795Z,6.33
2023-01-26T23:08:19.761Z,6.03
2023-01-26T23:10:47.788Z,4.83
2023-01-26T23:13:17.171Z,6.23
2023-01-26T23:15:45.171Z,8.30
2023-01-26T23:18:13.145Z,8.80
2023-01-26T23:20:41.208Z,6.27
2023-01-26T23:23:09.429Z,6.23
2023-01-26T23:25:52.633Z,3.43
2023-01-26T23:28:23.196Z,4.83
2023-01-26T23:30:51.664Z,3.30
2023-01-26T23:33:20.098Z,8.20
2023-01-26T23:35:48.175Z,7.73
2023-01-26T23:38:16.186Z,3.23
2023-01-26T23:40:44.941Z,5.20
2023-01-26T23:43:17.031Z,5.53
2023-01-26T23:45:47.119Z,6.40
2023-01-26T23:48:15.146Z,3.73
2023-01-26T23:50:43.455Z,4.30
2023-01-26T23:53:11.391Z,6.00
2023-01-26T23:55:41.156Z,8.23
2023-01-26T23:58:09.207Z,6.67
